createdAt,value
2019-06-20T00:01:53.943Z,11.73
2019-06-20T00:06:17.791Z,13.38
2019-06-20T00:10:41.882Z,17.93
2019-06-20T00:15:06.574Z,14.23
2019-06-20T00:19:31.258Z,14.03
2019-06-20T00:23:55.405Z,15.57
2019-06-20T00:28:19.316Z,18.43
2019-06-20T00:32:43.897Z,13.87
2019-06-20T00:37:08.332Z,15.90
2019-06-20T00:41:32.285Z,17.17
2019-06-20T00:45:56.093Z,16.65
2019-06-20T00:50:20.158Z,17.50
2019-06-20T00:54:44.269Z,17.93
2019-06-20T00:59:08.056Z,17.37
2019-06-20T01:03:32.917Z,16.53
2019-06-20T01:07:56.730Z,16.60
2019-06-20T01:12:21.176Z,15.98
2019-06-20T01:16:45.533Z,18.83
2019-06-20T01:21:09.724Z,20.60
2019-06-20T01:25:41.507Z,18.10
2019-06-20T01:30:07.657Z,19.63
2019-06-20T01:34:31.933Z,19.97
2019-06-20T01:38:55.997Z,24.07
2019-06-20T01:43:19.804Z,19.33
2019-06-20T01:47:43.713Z,19.87
2019-06-20T01:52:07.634Z,23.10
2019-06-20T01:56:31.466Z,24.87
2019-06-20T02:00:56.785Z,26.63
2019-06-20T02:05:20.844Z,28.03
2019-06-20T02:09:45.802Z,30.27
2019-06-20T02:14:10.169Z,30.08
2019-06-20T02:18:35.119Z,28.90
2019-06-20T02:23:00.127Z,35.00
2019-06-20T02:27:23.886Z,29.03
2019-06-20T02:31:47.794Z,35.57
2019-06-20T02:36:11.653Z,32.78
2019-06-20T02:40:36.783Z,37.20
2019-06-20T02:45:05.050Z,38.23
2019-06-20T02:49:29.435Z,36.88
2019-06-20T02:53:54.807Z,40.03
2019-06-20T02:58:19.665Z,42.83
2019-06-20T03:02:43.921Z,41.40
2019-06-20T03:07:08.085Z,37.47
2019-06-20T03:11:32.726Z,40.63
2019-06-20T03:15:57.289Z,38.57
2019-06-20T03:20:21.703Z,42.60
2019-06-20T03:24:46.052Z,36.37
2019-06-20T03:29:10.755Z,42.30
2019-06-20T03:33:34.478Z,42.03
2019-06-20T03:37:59.114Z,43.67
2019-06-20T03:42:24.368Z,45.57
2019-06-20T03:46:48.279Z,46.07
2019-06-20T03:51:13.608Z,44.27
2019-06-20T03:55:38.005Z,38.53
2019-06-20T04:00:02.627Z,46.67
2019-06-20T04:04:28.111Z,38.03
2019-06-20T04:08:52.790Z,40.87
2019-06-20T04:13:21.902Z,39.27
2019-06-20T04:17:45.944Z,35.63
2019-06-20T04:22:09.829Z,32.67
2019-06-20T04:26:34.459Z,33.73
2019-06-20T04:30:58.876Z,32.87
2019-06-20T04:35:22.573Z,32.17
2019-06-20T04:39:46.294Z,31.67
2019-06-20T04:44:11.066Z,33.43
2019-06-20T04:48:35.083Z,30.70
2019-06-20T04:52:58.796Z,33.63
2019-06-20T04:57:22.542Z,32.33
2019-06-20T05:01:46.386Z,32.13
2019-06-20T05:06:10.176Z,33.47
2019-06-20T05:10:33.962Z,31.30
2019-06-20T05:14:57.725Z,29.50
2019-06-20T05:19:21.408Z,30.70
2019-06-20T05:23:45.105Z,29.30
2019-06-20T05:28:08.792Z,30.23
2019-06-20T05:32:32.490Z,34.60
2019-06-20T05:36:57.429Z,29.40
2019-06-20T05:41:21.112Z,34.00
2019-06-20T05:45:48.559Z,29.90
2019-06-20T05:50:13.310Z,39.50
2019-06-20T05:54:37.014Z,38.03
2019-06-20T05:59:00.973Z,39.10
2019-06-20T06:03:25.949Z,39.73
2019-06-20T06:07:50.901Z,37.40
2019-06-20T06:12:14.596Z,40.20
2019-06-20T06:16:38.271Z,40.20
2019-06-20T06:21:02.536Z,39.53
2019-06-20T06:25:26.229Z,41.33
2019-06-20T06:29:50.196Z,43.27
2019-06-20T06:34:13.873Z,42.05
2019-06-20T06:38:37.743Z,39.87
2019-06-20T06:43:01.444Z,39.30
2019-06-20T06:47:25.517Z,40.40
2019-06-20T06:51:49.306Z,39.57
2019-06-20T06:56:12.984Z,39.70
2019-06-20T07:00:36.742Z,37.10
2019-06-20T07:05:00.448Z,38.67
2019-06-20T07:09:24.170Z,37.40
2019-06-20T07:13:47.866Z,37.83
2019-06-20T07:18:11.538Z,36.37
2019-06-20T07:22:35.270Z,39.37
2019-06-20T07:26:59.031Z,38.97
2019-06-20T07:31:22.733Z,36.97
2019-06-20T07:35:46.588Z,38.40
2019-06-20T07:40:11.120Z,37.83
2019-06-20T07:44:34.885Z,34.03
2019-06-20T07:48:59.325Z,34.40
2019-06-20T07:53:23.136Z,36.60
2019-06-20T07:57:48.448Z,33.73
2019-06-20T08:02:12.282Z,33.33
2019-06-20T08:06:35.972Z,33.95
2019-06-20T08:10:59.726Z,34.90
2019-06-20T08:15:23.594Z,34.60
2019-06-20T08:19:47.355Z,32.57
2019-06-20T08:24:11.217Z,36.90
2019-06-20T08:28:35.931Z,36.00
2019-06-20T08:33:03.544Z,38.10
2019-06-20T08:37:26.190Z,39.57
2019-06-20T08:41:49.871Z,37.63
2019-06-20T08:46:13.566Z,36.10
2019-06-20T08:50:37.659Z,39.47
2019-06-20T08:55:01.361Z,37.23
2019-06-20T08:59:25.094Z,40.50
2019-06-20T09:03:48.827Z,40.33
2019-06-20T09:08:12.599Z,36.97
2019-06-20T09:12:36.358Z,38.33
2019-06-20T09:17:00.752Z,37.60
2019-06-20T09:21:24.765Z,37.90
2019-06-20T09:25:48.730Z,36.73
2019-06-20T09:30:12.994Z,36.23
2019-06-20T09:34:36.650Z,39.10
2019-06-20T09:39:00.787Z,38.63
2019-06-20T09:43:27.789Z,43.67
2019-06-20T09:47:52.201Z,42.63
2019-06-20T09:52:16.077Z,37.80
2019-06-20T09:56:41.315Z,42.23
2019-06-20T10:01:05.092Z,38.57
2019-06-20T10:05:28.793Z,34.10
2019-06-20T10:09:52.559Z,36.33
2019-06-20T10:14:16.718Z,36.77
2019-06-20T10:18:40.401Z,32.63
2019-06-20T10:23:04.930Z,33.67
2019-06-20T10:27:28.757Z,31.13
2019-06-20T10:31:53.165Z,30.63
2019-06-20T10:36:18.158Z,31.12
2019-06-20T10:40:41.923Z,29.97
2019-06-20T10:45:06.671Z,29.80
2019-06-20T10:49:30.826Z,27.17
2019-06-20T10:53:54.802Z,24.47
2019-06-20T10:58:18.735Z,22.10
2019-06-20T11:02:43.394Z,22.73
2019-06-20T11:07:07.679Z,19.13
2019-06-20T11:11:31.436Z,18.87
2019-06-20T11:15:55.457Z,17.73
2019-06-20T11:20:19.683Z,16.62
2019-06-20T11:24:43.571Z,14.80
2019-06-20T11:29:07.326Z,14.87
2019-06-20T11:33:31.015Z,12.97
2019-06-20T11:37:54.718Z,11.27
2019-06-20T11:42:18.428Z,12.57
2019-06-20T11:46:42.667Z,11.57
2019-06-20T11:51:06.552Z,12.77
2019-06-20T11:55:30.383Z,12.30
2019-06-20T11:59:54.081Z,13.10
2019-06-20T12:04:17.779Z,11.40
2019-06-20T12:08:42.412Z,12.27
2019-06-20T12:13:06.128Z,12.13
2019-06-20T12:17:29.881Z,12.83
2019-06-20T12:21:53.563Z,13.50
2019-06-20T12:26:17.396Z,13.80
2019-06-20T12:30:41.598Z,12.27
2019-06-20T12:35:05.976Z,12.60
2019-06-20T12:39:29.829Z,14.60
2019-06-20T12:43:53.508Z,13.40
2019-06-20T12:48:17.285Z,14.38
2019-06-20T12:52:42.506Z,12.87
2019-06-20T12:57:06.327Z,13.20
2019-06-20T13:01:35.841Z,11.18
2019-06-20T13:05:55.797Z,12.33
2019-06-20T13:10:19.979Z,10.87
2019-06-20T13:14:45.563Z,11.70
2019-06-20T13:19:09.026Z,12.03
2019-06-20T13:23:32.944Z,12.03
2019-06-20T13:27:57.058Z,11.77
2019-06-20T13:32:20.989Z,12.47
2019-06-20T13:36:44.769Z,11.83
2019-06-20T13:41:08.390Z,11.80
2019-06-20T13:45:32.146Z,11.20
2019-06-20T13:49:55.828Z,8.28
2019-06-20T13:54:19.593Z,10.40
2019-06-20T13:58:44.738Z,10.27
2019-06-20T14:03:08.822Z,10.40
2019-06-20T14:07:32.578Z,9.07
2019-06-20T14:11:56.327Z,8.10
2019-06-20T14:16:20.091Z,8.37
2019-06-20T14:20:44.887Z,9.80
2019-06-20T14:25:08.777Z,10.63
2019-06-20T14:29:32.475Z,10.83
2019-06-20T14:33:57.129Z,11.37
2019-06-20T14:38:21.113Z,10.60
2019-06-20T14:42:45.969Z,11.07
2019-06-20T14:47:11.114Z,10.70
2019-06-20T14:51:35.086Z,11.47
2019-06-20T14:55:59.009Z,11.30
2019-06-20T15:00:24.578Z,11.28
2019-06-20T15:04:48.250Z,11.67
2019-06-20T15:09:11.949Z,12.63
2019-06-20T15:13:47.675Z,12.17
2019-06-20T15:18:11.887Z,11.53
2019-06-20T15:22:35.730Z,11.83
2019-06-20T15:26:59.417Z,11.63
2019-06-20T15:31:25.252Z,11.07
2019-06-20T15:35:50.642Z,11.00
2019-06-20T15:40:15.669Z,9.87
2019-06-20T15:44:39.354Z,9.67
2019-06-20T15:49:15.329Z,9.57
2019-06-20T15:53:29.977Z,9.90
2019-06-20T15:57:54.352Z,11.43
2019-06-20T16:02:18.221Z,10.47
2019-06-20T16:06:41.873Z,8.67
2019-06-20T16:11:05.628Z,9.80
2019-06-20T16:15:29.361Z,9.80
2019-06-20T16:19:53.283Z,11.10
2019-06-20T16:24:16.983Z,10.77
2019-06-20T16:28:40.669Z,10.73
2019-06-20T16:33:04.804Z,11.77
2019-06-20T16:37:28.813Z,9.70
2019-06-20T16:41:57.341Z,8.90
2019-06-20T16:46:21.014Z,9.10
2019-06-20T16:50:44.707Z,8.10
2019-06-20T16:55:09.063Z,7.37
2019-06-20T16:59:32.731Z,8.07
2019-06-20T17:03:56.412Z,7.27
2019-06-20T17:08:20.411Z,7.90
2019-06-20T17:12:44.201Z,5.60
2019-06-20T17:17:07.991Z,6.87
2019-06-20T17:21:31.631Z,7.90
2019-06-20T17:25:55.442Z,8.50
2019-06-20T17:30:21.103Z,9.55
2019-06-20T17:34:44.798Z,8.40
2019-06-20T17:39:08.992Z,13.07
2019-06-20T17:43:33.142Z,8.00
2019-06-20T17:47:56.962Z,7.40
2019-06-20T17:52:20.672Z,8.03
2019-06-20T17:56:44.513Z,9.77
2019-06-20T18:01:08.240Z,7.10
2019-06-20T18:05:31.989Z,7.20
2019-06-20T18:09:55.685Z,7.33
2019-06-20T18:14:19.430Z,10.20
2019-06-20T18:18:43.224Z,7.43
2019-06-20T18:23:06.893Z,8.00
2019-06-20T18:27:30.667Z,7.00
2019-06-20T18:31:54.329Z,6.27
2019-06-20T18:36:18.017Z,4.67
2019-06-20T18:40:41.761Z,4.97
2019-06-20T18:45:06.285Z,5.60
2019-06-20T18:49:30.044Z,4.30
2019-06-20T18:53:53.727Z,5.23
2019-06-20T18:58:17.402Z,3.45
2019-06-20T19:02:41.505Z,3.27
2019-06-20T19:07:05.254Z,3.70
2019-06-20T19:11:29.160Z,3.50
2019-06-20T19:15:52.858Z,3.90
2019-06-20T19:20:17.869Z,3.60
2019-06-20T19:24:41.578Z,3.87
2019-06-20T19:29:05.421Z,3.63
2019-06-20T19:33:29.221Z,3.67
2019-06-20T19:37:52.892Z,3.93
2019-06-20T19:42:16.604Z,3.30
2019-06-20T19:46:40.595Z,4.03
2019-06-20T19:51:05.160Z,3.70
2019-06-20T19:55:29.008Z,4.13
2019-06-20T19:59:52.748Z,3.57
2019-06-20T20:04:16.555Z,4.43
2019-06-20T20:08:40.304Z,4.50
2019-06-20T20:13:05.298Z,6.70
2019-06-20T20:17:29.011Z,4.93
2019-06-20T20:21:52.645Z,4.53
2019-06-20T20:26:16.311Z,4.70
2019-06-20T20:30:40.067Z,4.07
2019-06-20T20:35:03.756Z,4.70
2019-06-20T20:39:27.428Z,5.00
2019-06-20T20:43:51.342Z,5.27
2019-06-20T20:48:16.022Z,4.83
2019-06-20T20:52:39.699Z,5.27
2019-06-20T20:57:03.527Z,4.97
2019-06-20T21:01:35.169Z,5.07
2019-06-20T21:05:57.695Z,6.07
2019-06-20T21:10:22.905Z,5.72
2019-06-20T21:14:46.581Z,6.00
2019-06-20T21:19:10.273Z,5.28
2019-06-20T21:23:34.040Z,5.43
2019-06-20T21:27:57.722Z,5.40
2019-06-20T21:32:24.974Z,6.00
2019-06-20T21:36:49.072Z,5.50
2019-06-20T21:41:12.755Z,5.67
2019-06-20T21:45:36.562Z,5.87
2019-06-20T21:50:00.242Z,5.17
2019-06-20T21:54:23.923Z,5.30
2019-06-20T21:58:48.875Z,5.40
2019-06-20T22:03:12.872Z,6.10
2019-06-20T22:07:36.534Z,6.50
2019-06-20T22:12:00.217Z,6.90
2019-06-20T22:16:23.967Z,5.40
2019-06-20T22:20:47.901Z,9.87
2019-06-20T22:25:11.827Z,8.33
2019-06-20T22:29:36.649Z,7.10
2019-06-20T22:34:00.411Z,6.03
2019-06-20T22:38:24.128Z,5.70
2019-06-20T22:42:47.807Z,6.67
2019-06-20T22:47:11.523Z,6.83
2019-06-20T22:51:35.187Z,6.03
2019-06-20T22:55:58.853Z,6.37
2019-06-20T23:00:22.897Z,5.53
2019-06-20T23:04:46.577Z,7.27
2019-06-20T23:09:10.391Z,8.30
2019-06-20T23:13:34.395Z,9.37
2019-06-20T23:17:58.472Z,11.23
2019-06-20T23:22:22.165Z,12.45
2019-06-20T23:26:45.926Z,13.40
2019-06-20T23:31:09.648Z,12.77
2019-06-20T23:35:35.095Z,14.30
2019-06-20T23:39:58.787Z,14.50
2019-06-20T23:44:22.487Z,13.50
2019-06-20T23:48:46.367Z,15.50
2019-06-20T23:53:16.241Z,13.20
2019-06-20T23:57:39.930Z,12.17
